sensor_id;sensor_type;location;lat;lon;timestamp;temperature;humidity
66728;DHT22;53641;44.274;19.890;2023-04-01T00:02:17;15.70;84.30
66728;DHT22;53641;44.274;19.890;2023-04-01T00:04:42;15.80;83.70
66728;DHT22;53641;44.274;19.890;2023-04-01T00:07:08;15.80;85.90
66728;DHT22;53641;44.274;19.890;2023-04-01T00:09:34;15.90;85.40
66728;DHT22;53641;44.274;19.890;2023-04-01T00:12:00;16.00;84.60
66728;DHT22;53641;44.274;19.890;2023-04-01T00:14:26;16.00;84.00
66728;DHT22;53641;44.274;19.890;2023-04-01T00:16:52;16.00;85.30
66728;DHT22;53641;44.274;19.890;2023-04-01T00:19:18;16.10;85.50
66728;DHT22;53641;44.274;19.890;2023-04-01T00:21:43;16.10;85.40
66728;DHT22;53641;44.274;19.890;2023-04-01T00:24:09;16.00;85.90
66728;DHT22;53641;44.274;19.890;2023-04-01T00:26:35;16.00;86.60
66728;DHT22;53641;44.274;19.890;2023-04-01T00:29:00;15.90;86.80
66728;DHT22;53641;44.274;19.890;2023-04-01T00:31:26;15.90;87.80
66728;DHT22;53641;44.274;19.890;2023-04-01T00:33:52;15.90;86.40
66728;DHT22;53641;44.274;19.890;2023-04-01T00:36:19;15.90;86.70
66728;DHT22;53641;44.274;19.890;2023-04-01T00:38:45;15.90;85.50
66728;DHT22;53641;44.274;19.890;2023-04-01T00:41:11;15.80;85.30
66728;DHT22;53641;44.274;19.890;2023-04-01T00:43:39;15.90;85.50
66728;DHT22;53641;44.274;19.890;2023-04-01T00:46:05;16.00;85.00
66728;DHT22;53641;44.274;19.890;2023-04-01T00:48:33;16.00;85.40
66728;DHT22;53641;44.274;19.890;2023-04-01T00:51:04;16.10;85.70
66728;DHT22;53641;44.274;19.890;2023-04-01T00:53:31;16.00;85.40
66728;DHT22;53641;44.274;19.890;2023-04-01T00:56:03;16.00;85.50
66728;DHT22;53641;44.274;19.890;2023-04-01T00:58:31;15.90;85.80
66728;DHT22;53641;44.274;19.890;2023-04-01T01:00:58;15.90;86.00
66728;DHT22;53641;44.274;19.890;2023-04-01T01:03:24;15.90;85.70
66728;DHT22;53641;44.274;19.890;2023-04-01T01:06:00;16.00;85.60
66728;DHT22;53641;44.274;19.890;2023-04-01T01:08:51;16.00;87.00
66728;DHT22;53641;44.274;19.890;2023-04-01T01:11:16;16.00;87.10
66728;DHT22;53641;44.274;19.890;2023-04-01T01:13:50;16.00;87.50
66728;DHT22;53641;44.274;19.890;2023-04-01T01:16:27;16.00;87.60
66728;DHT22;53641;44.274;19.890;2023-04-01T01:18:58;15.90;87.00
66728;DHT22;53641;44.274;19.890;2023-04-01T01:21:37;15.90;87.40
66728;DHT22;53641;44.274;19.890;2023-04-01T01:24:09;15.90;88.00
66728;DHT22;53641;44.274;19.890;2023-04-01T01:26:59;15.90;87.50
66728;DHT22;53641;44.274;19.890;2023-04-01T01:29:30;16.00;87.90
66728;DHT22;53641;44.274;19.890;2023-04-01T01:32:10;15.90;87.20
66728;DHT22;53641;44.274;19.890;2023-04-01T01:34:40;15.90;88.20
66728;DHT22;53641;44.274;19.890;2023-04-01T01:37:12;15.80;89.50
66728;DHT22;53641;44.274;19.890;2023-04-01T01:39:39;15.70;89.60
66728;DHT22;53641;44.274;19.890;2023-04-01T01:42:07;15.70;90.40
66728;DHT22;53641;44.274;19.890;2023-04-01T01:44:34;15.70;90.00
66728;DHT22;53641;44.274;19.890;2023-04-01T01:47:01;15.70;90.20
66728;DHT22;53641;44.274;19.890;2023-04-01T01:49:27;15.70;90.30
66728;DHT22;53641;44.274;19.890;2023-04-01T01:51:55;15.70;89.80
66728;DHT22;53641;44.274;19.890;2023-04-01T01:54:21;15.70;90.20
66728;DHT22;53641;44.274;19.890;2023-04-01T01:56:48;15.70;90.30
66728;DHT22;53641;44.274;19.890;2023-04-01T01:59:16;15.70;90.10
66728;DHT22;53641;44.274;19.890;2023-04-01T02:01:44;15.70;90.10
66728;DHT22;53641;44.274;19.890;2023-04-01T02:04:11;15.70;90.20
66728;DHT22;53641;44.274;19.890;2023-04-01T02:06:39;15.80;90.20
66728;DHT22;53641;44.274;19.890;2023-04-01T02:09:07;15.70;90.40
66728;DHT22;53641;44.274;19.890;2023-04-01T02:11:37;15.70;90.30
66728;DHT22;53641;44.274;19.890;2023-04-01T02:14:06;15.60;90.80
66728;DHT22;53641;44.274;19.890;2023-04-01T02:16:36;15.70;91.00
66728;DHT22;53641;44.274;19.890;2023-04-01T02:19:04;15.70;91.90
66728;DHT22;53641;44.274;19.890;2023-04-01T02:21:32;15.60;91.60
66728;DHT22;53641;44.274;19.890;2023-04-01T02:23:59;15.60;92.00
66728;DHT22;53641;44.274;19.890;2023-04-01T02:26:25;15.60;92.70
66728;DHT22;53641;44.274;19.890;2023-04-01T02:28:52;15.50;92.90
66728;DHT22;53641;44.274;19.890;2023-04-01T02:31:19;15.50;93.60
66728;DHT22;53641;44.274;19.890;2023-04-01T02:33:45;15.50;93.80
66728;DHT22;53641;44.274;19.890;2023-04-01T02:36:14;15.40;94.60
66728;DHT22;53641;44.274;19.890;2023-04-01T02:38:41;15.50;94.70
66728;DHT22;53641;44.274;19.890;2023-04-01T02:41:07;15.50;95.60
66728;DHT22;53641;44.274;19.890;2023-04-01T02:43:33;15.50;95.70
66728;DHT22;53641;44.274;19.890;2023-04-01T02:45:58;15.40;96.10
66728;DHT22;53641;44.274;19.890;2023-04-01T02:48:24;15.30;97.20
66728;DHT22;53641;44.274;19.890;2023-04-01T02:50:50;15.10;98.00
66728;DHT22;53641;44.274;19.890;2023-04-01T02:53:16;14.70;99.90
66728;DHT22;53641;44.274;19.890;2023-04-01T02:55:42;14.00;99.90
66728;DHT22;53641;44.274;19.890;2023-04-01T02:58:07;13.80;99.90
66728;DHT22;53641;44.274;19.890;2023-04-01T03:00:33;13.60;99.90
66728;DHT22;53641;44.274;19.890;2023-04-01T03:02:59;13.40;99.90
66728;DHT22;53641;44.274;19.890;2023-04-01T03:05:25;13.40;99.90
66728;DHT22;53641;44.274;19.890;2023-04-01T03:07:51;13.20;99.90
66728;DHT22;53641;44.274;19.890;2023-04-01T03:10:16;13.30;99.90
66728;DHT22;53641;44.274;19.890;2023-04-01T03:12:42;13.40;99.90
66728;DHT22;53641;44.274;19.890;2023-04-01T03:15:10;13.60;99.90
66728;DHT22;53641;44.274;19.890;2023-04-01T03:17:35;13.80;99.90
66728;DHT22;53641;44.274;19.890;2023-04-01T03:20:01;14.00;99.90
66728;DHT22;53641;44.274;19.890;2023-04-01T03:22:30;14.10;99.90
66728;DHT22;53641;44.274;19.890;2023-04-01T03:24:56;14.30;99.90
66728;DHT22;53641;44.274;19.890;2023-04-01T03:27:21;14.30;99.90
66728;DHT22;53641;44.274;19.890;2023-04-01T03:29:47;14.40;99.90
66728;DHT22;53641;44.274;19.890;2023-04-01T03:32:13;14.40;99.90
66728;DHT22;53641;44.274;19.890;2023-04-01T03:34:38;14.40;99.90
66728;DHT22;53641;44.274;19.890;2023-04-01T03:37:04;14.50;99.90
66728;DHT22;53641;44.274;19.890;2023-04-01T03:39:31;14.50;99.90
66728;DHT22;53641;44.274;19.890;2023-04-01T03:41:57;14.40;99.90
66728;DHT22;53641;44.274;19.890;2023-04-01T03:44:22;14.40;99.90
66728;DHT22;53641;44.274;19.890;2023-04-01T03:46:48;14.40;99.90
66728;DHT22;53641;44.274;19.890;2023-04-01T03:49:14;14.50;99.90
66728;DHT22;53641;44.274;19.890;2023-04-01T03:51:41;14.50;99.90
66728;DHT22;53641;44.274;19.890;2023-04-01T03:54:07;14.50;99.90
66728;DHT22;53641;44.274;19.890;2023-04-01T03:56:33;14.50;99.90
66728;DHT22;53641;44.274;19.890;2023-04-01T03:59:01;14.40;99.90
66728;DHT22;53641;44.274;19.890;2023-04-01T04:01:27;14.40;99.90
66728;DHT22;53641;44.274;19.890;2023-04-01T04:03:52;14.40;99.90
66728;DHT22;53641;44.274;19.890;2023-04-01T04:06:19;14.50;99.90
66728;DHT22;53641;44.274;19.890;2023-04-01T04:08:44;14.50;99.90
66728;DHT22;53641;44.274;19.890;2023-04-01T04:11:10;14.50;99.90
66728;DHT22;53641;44.274;19.890;2023-04-01T04:13:36;14.40;99.90
66728;DHT22;53641;44.274;19.890;2023-04-01T04:16:02;14.40;99.90
66728;DHT22;53641;44.274;19.890;2023-04-01T04:18:28;14.30;99.90
66728;DHT22;53641;44.274;19.890;2023-04-01T04:20:54;14.20;99.90
66728;DHT22;53641;44.274;19.890;2023-04-01T04:28:30;13.80;99.90
66728;DHT22;53641;44.274;19.890;2023-04-01T04:30:56;13.90;99.90
66728;DHT22;53641;44.274;19.890;2023-04-01T04:33:22;14.10;99.90
66728;DHT22;53641;44.274;19.890;2023-04-01T04:35:48;14.10;99.90
66728;DHT22;53641;44.274;19.890;2023-04-01T04:38:14;14.10;99.90
66728;DHT22;53641;44.274;19.890;2023-04-01T04:40:40;14.00;99.90
66728;DHT22;53641;44.274;19.890;2023-04-01T04:43:06;14.10;99.90
66728;DHT22;53641;44.274;19.890;2023-04-01T04:45:32;14.20;99.90
66728;DHT22;53641;44.274;19.890;2023-04-01T04:47:57;14.20;99.90
66728;DHT22;53641;44.274;19.890;2023-04-01T04:50:24;14.30;99.90
66728;DHT22;53641;44.274;19.890;2023-04-01T04:52:50;14.20;99.90
66728;DHT22;53641;44.274;19.890;2023-04-01T04:55:15;14.00;99.90
66728;DHT22;53641;44.274;19.890;2023-04-01T04:57:41;14.00;99.90
66728;DHT22;53641;44.274;19.890;2023-04-01T05:00:07;14.00;99.90
66728;DHT22;53641;44.274;19.890;2023-04-01T05:02:33;14.00;99.90
66728;DHT22;53641;44.274;19.890;2023-04-01T05:04:59;14.10;99.90
66728;DHT22;53641;44.274;19.890;2023-04-01T05:07:25;14.00;99.90
66728;DHT22;53641;44.274;19.890;2023-04-01T05:09:51;14.20;99.90
66728;DHT22;53641;44.274;19.890;2023-04-01T05:12:16;14.10;99.90
66728;DHT22;53641;44.274;19.890;2023-04-01T05:14:42;14.10;99.90
66728;DHT22;53641;44.274;19.890;2023-04-01T05:17:09;14.00;99.90
66728;DHT22;53641;44.274;19.890;2023-04-01T05:19:35;14.10;99.90
66728;DHT22;53641;44.274;19.890;2023-04-01T05:22:00;14.20;99.90
66728;DHT22;53641;44.274;19.890;2023-04-01T05:24:26;14.20;99.90
66728;DHT22;53641;44.274;19.890;2023-04-01T05:26:52;14.30;99.90
66728;DHT22;53641;44.274;19.890;2023-04-01T05:29:17;14.50;99.90
66728;DHT22;53641;44.274;19.890;2023-04-01T05:31:43;14.70;99.90
66728;DHT22;53641;44.274;19.890;2023-04-01T05:34:09;14.80;99.90
66728;DHT22;53641;44.274;19.890;2023-04-01T05:36:34;14.80;99.90
66728;DHT22;53641;44.274;19.890;2023-04-01T05:39:01;14.80;99.90
66728;DHT22;53641;44.274;19.890;2023-04-01T05:41:26;14.90;99.90
66728;DHT22;53641;44.274;19.890;2023-04-01T05:43:52;14.80;99.90
66728;DHT22;53641;44.274;19.890;2023-04-01T05:46:17;14.80;99.90
66728;DHT22;53641;44.274;19.890;2023-04-01T05:48:43;14.90;99.90
66728;DHT22;53641;44.274;19.890;2023-04-01T05:51:15;14.80;99.90
66728;DHT22;53641;44.274;19.890;2023-04-01T05:53:41;14.80;99.90
66728;DHT22;53641;44.274;19.890;2023-04-01T05:56:07;14.70;99.90
66728;DHT22;53641;44.274;19.890;2023-04-01T05:58:35;14.70;99.90
66728;DHT22;53641;44.274;19.890;2023-04-01T06:01:01;14.70;99.90
66728;DHT22;53641;44.274;19.890;2023-04-01T06:03:27;14.60;99.90
66728;DHT22;53641;44.274;19.890;2023-04-01T06:05:53;14.50;99.90
66728;DHT22;53641;44.274;19.890;2023-04-01T06:08:19;14.50;99.90
66728;DHT22;53641;44.274;19.890;2023-04-01T06:10:52;14.60;99.90
66728;DHT22;53641;44.274;19.890;2023-04-01T06:13:26;14.50;99.90
66728;DHT22;53641;44.274;19.890;2023-04-01T06:16:04;14.60;99.90
66728;DHT22;53641;44.274;19.890;2023-04-01T06:18:52;14.40;99.90
66728;DHT22;53641;44.274;19.890;2023-04-01T06:21:37;14.00;99.90
66728;DHT22;53641;44.274;19.890;2023-04-01T06:24:07;13.80;99.90
66728;DHT22;53641;44.274;19.890;2023-04-01T06:30:41;14.00;99.90
66728;DHT22;53641;44.274;19.890;2023-04-01T06:32:49;14.20;99.90
66728;DHT22;53641;44.274;19.890;2023-04-01T06:35:14;14.20;99.90
66728;DHT22;53641;44.274;19.890;2023-04-01T06:37:45;14.20;99.90
66728;DHT22;53641;44.274;19.890;2023-04-01T06:40:41;14.20;99.90
66728;DHT22;53641;44.274;19.890;2023-04-01T06:43:43;14.20;99.90
66728;DHT22;53641;44.274;19.890;2023-04-01T06:46:00;14.10;99.90
66728;DHT22;53641;44.274;19.890;2023-04-01T06:48:41;14.20;99.90
66728;DHT22;53641;44.274;19.890;2023-04-01T06:51:17;14.10;99.90
66728;DHT22;53641;44.274;19.890;2023-04-01T06:53:52;14.20;99.90
66728;DHT22;53641;44.274;19.890;2023-04-01T06:56:20;13.70;99.90
66728;DHT22;53641;44.274;19.890;2023-04-01T06:58:51;13.50;99.90
66728;DHT22;53641;44.274;19.890;2023-04-01T07:01:21;13.60;99.90
66728;DHT22;53641;44.274;19.890;2023-04-01T07:03:49;13.30;99.90
66728;DHT22;53641;44.274;19.890;2023-04-01T07:06:31;13.30;99.90
66728;DHT22;53641;44.274;19.890;2023-04-01T07:08:58;13.20;99.90
66728;DHT22;53641;44.274;19.890;2023-04-01T07:11:33;13.20;99.90
66728;DHT22;53641;44.274;19.890;2023-04-01T07:14:01;13.20;99.90
66728;DHT22;53641;44.274;19.890;2023-04-01T07:16:34;13.40;99.90
66728;DHT22;53641;44.274;19.890;2023-04-01T07:19:03;13.50;99.90
66728;DHT22;53641;44.274;19.890;2023-04-01T07:21:35;13.60;99.90
66728;DHT22;53641;44.274;19.890;2023-04-01T07:24:05;13.50;99.90
66728;DHT22;53641;44.274;19.890;2023-04-01T07:26:37;13.50;99.90
66728;DHT22;53641;44.274;19.890;2023-04-01T07:29:05;13.60;99.90
66728;DHT22;53641;44.274;19.890;2023-04-01T07:31:37;13.50;99.90
66728;DHT22;53641;44.274;19.890;2023-04-01T07:34:09;13.50;99.90
66728;DHT22;53641;44.274;19.890;2023-04-01T07:36:43;13.50;99.90
66728;DHT22;53641;44.274;19.890;2023-04-01T07:42:00;13.50;99.90
66728;DHT22;53641;44.274;19.890;2023-04-01T07:44:42;13.60;99.90
66728;DHT22;53641;44.274;19.890;2023-04-01T07:47:51;13.60;99.90
66728;DHT22;53641;44.274;19.890;2023-04-01T07:50:02;13.70;99.90
66728;DHT22;53641;44.274;19.890;2023-04-01T07:52:34;13.90;99.90
66728;DHT22;53641;44.274;19.890;2023-04-01T07:55:04;14.00;99.90
66728;DHT22;53641;44.274;19.890;2023-04-01T07:57:38;14.10;99.90
66728;DHT22;53641;44.274;19.890;2023-04-01T08:00:15;14.20;99.90
66728;DHT22;53641;44.274;19.890;2023-04-01T08:02:53;14.20;99.90
66728;DHT22;53641;44.274;19.890;2023-04-01T08:05:23;14.20;99.90
66728;DHT22;53641;44.274;19.890;2023-04-01T08:08:03;14.10;99.90
66728;DHT22;53641;44.274;19.890;2023-04-01T08:10:36;14.20;99.90
66728;DHT22;53641;44.274;19.890;2023-04-01T08:14:17;14.10;99.90
66728;DHT22;53641;44.274;19.890;2023-04-01T08:15:56;14.10;99.90
66728;DHT22;53641;44.274;19.890;2023-04-01T08:18:36;14.00;99.90
66728;DHT22;53641;44.274;19.890;2023-04-01T08:21:05;13.90;99.90
66728;DHT22;53641;44.274;19.890;2023-04-01T08:23:36;13.80;99.90
66728;DHT22;53641;44.274;19.890;2023-04-01T08:26:04;13.80;99.90
66728;DHT22;53641;44.274;19.890;2023-04-01T08:28:33;14.00;99.90
66728;DHT22;53641;44.274;19.890;2023-04-01T08:31:05;14.00;99.90
66728;DHT22;53641;44.274;19.890;2023-04-01T08:33:32;14.20;99.90
66728;DHT22;53641;44.274;19.890;2023-04-01T08:36:09;14.30;99.90
66728;DHT22;53641;44.274;19.890;2023-04-01T08:38:51;14.40;99.90
66728;DHT22;53641;44.274;19.890;2023-04-01T08:41:39;14.50;99.90
66728;DHT22;53641;44.274;19.890;2023-04-01T08:45:06;14.60;99.90
66728;DHT22;53641;44.274;19.890;2023-04-01T08:48:41;14.70;99.90
66728;DHT22;53641;44.274;19.890;2023-04-01T08:50:36;14.90;99.90
66728;DHT22;53641;44.274;19.890;2023-04-01T08:52:41;14.90;99.90
66728;DHT22;53641;44.274;19.890;2023-04-01T08:55:26;14.90;99.90
66728;DHT22;53641;44.274;19.890;2023-04-01T09:00:38;15.00;99.90
66728;DHT22;53641;44.274;19.890;2023-04-01T09:03:19;15.20;99.90
66728;DHT22;53641;44.274;19.890;2023-04-01T09:07:08;15.20;99.90
66728;DHT22;53641;44.274;19.890;2023-04-01T09:08:42;15.20;99.90
66728;DHT22;53641;44.274;19.890;2023-04-01T09:11:22;15.10;99.90
66728;DHT22;53641;44.274;19.890;2023-04-01T09:14:03;15.10;99.90
66728;DHT22;53641;44.274;19.890;2023-04-01T09:16:39;15.20;99.90
66728;DHT22;53641;44.274;19.890;2023-04-01T09:19:15;15.30;99.90
66728;DHT22;53641;44.274;19.890;2023-04-01T09:21:47;15.40;99.90
66728;DHT22;53641;44.274;19.890;2023-04-01T09:25:45;15.50;99.90
66728;DHT22;53641;44.274;19.890;2023-04-01T09:27:04;15.70;99.90
66728;DHT22;53641;44.274;19.890;2023-04-01T09:29:42;15.90;99.90
66728;DHT22;53641;44.274;19.890;2023-04-01T09:32:19;15.90;99.90
66728;DHT22;53641;44.274;19.890;2023-04-01T09:34:51;16.00;99.90
66728;DHT22;53641;44.274;19.890;2023-04-01T09:37:34;16.00;99.90
66728;DHT22;53641;44.274;19.890;2023-04-01T09:40:14;16.00;99.90
66728;DHT22;53641;44.274;19.890;2023-04-01T09:42:45;16.20;99.90
66728;DHT22;53641;44.274;19.890;2023-04-01T09:45:28;16.40;99.90
66728;DHT22;53641;44.274;19.890;2023-04-01T09:48:02;16.60;99.90
66728;DHT22;53641;44.274;19.890;2023-04-01T09:51:06;16.90;99.90
66728;DHT22;53641;44.274;19.890;2023-04-01T09:53:26;17.20;99.90
66728;DHT22;53641;44.274;19.890;2023-04-01T09:56:13;17.40;99.90
66728;DHT22;53641;44.274;19.890;2023-04-01T10:00:03;17.60;99.90
66728;DHT22;53641;44.274;19.890;2023-04-01T10:01:45;17.60;99.90
66728;DHT22;53641;44.274;19.890;2023-04-01T10:05:15;17.50;99.90
66728;DHT22;53641;44.274;19.890;2023-04-01T10:12:36;16.40;99.90
66728;DHT22;53641;44.274;19.890;2023-04-01T10:15:25;16.20;99.90
66728;DHT22;53641;44.274;19.890;2023-04-01T10:18:30;16.00;99.90
66728;DHT22;53641;44.274;19.890;2023-04-01T10:24:07;15.40;99.90
66728;DHT22;53641;44.274;19.890;2023-04-01T10:26:25;15.40;99.90
66728;DHT22;53641;44.274;19.890;2023-04-01T10:30:30;15.20;99.90
66728;DHT22;53641;44.274;19.890;2023-04-01T10:32:06;14.80;99.90
66728;DHT22;53641;44.274;19.890;2023-04-01T10:34:41;14.70;99.90
66728;DHT22;53641;44.274;19.890;2023-04-01T10:37:23;14.40;99.90
66728;DHT22;53641;44.274;19.890;2023-04-01T10:40:02;14.10;99.90
66728;DHT22;53641;44.274;19.890;2023-04-01T10:43:53;14.00;99.90
66728;DHT22;53641;44.274;19.890;2023-04-01T10:45:49;13.70;99.90
66728;DHT22;53641;44.274;19.890;2023-04-01T10:51:53;13.50;99.90
66728;DHT22;53641;44.274;19.890;2023-04-01T10:53:37;13.40;99.90
66728;DHT22;53641;44.274;19.890;2023-04-01T10:56:42;13.40;99.90
66728;DHT22;53641;44.274;19.890;2023-04-01T10:58:56;13.50;99.90
66728;DHT22;53641;44.274;19.890;2023-04-01T11:04:29;13.40;99.90
66728;DHT22;53641;44.274;19.890;2023-04-01T11:07:11;13.60;99.90
66728;DHT22;53641;44.274;19.890;2023-04-01T11:09:59;13.60;99.90
66728;DHT22;53641;44.274;19.890;2023-04-01T11:12:44;13.60;99.90
66728;DHT22;53641;44.274;19.890;2023-04-01T11:15:22;13.70;99.90
66728;DHT22;53641;44.274;19.890;2023-04-01T11:21:59;13.60;99.90
66728;DHT22;53641;44.274;19.890;2023-04-01T11:23:28;13.70;99.90
66728;DHT22;53641;44.274;19.890;2023-04-01T11:29:04;13.20;99.90
66728;DHT22;53641;44.274;19.890;2023-04-01T11:32:49;13.10;99.90
66728;DHT22;53641;44.274;19.890;2023-04-01T11:34:21;12.90;99.90
66728;DHT22;53641;44.274;19.890;2023-04-01T11:36:56;12.80;99.90
66728;DHT22;53641;44.274;19.890;2023-04-01T11:39:44;12.90;99.90
66728;DHT22;53641;44.274;19.890;2023-04-01T11:42:30;12.90;99.90
66728;DHT22;53641;44.274;19.890;2023-04-01T11:45:20;13.10;99.90
66728;DHT22;53641;44.274;19.890;2023-04-01T11:47:53;13.10;99.90
66728;DHT22;53641;44.274;19.890;2023-04-01T11:50:28;13.20;99.90
66728;DHT22;53641;44.274;19.890;2023-04-01T11:53:12;13.10;99.90
66728;DHT22;53641;44.274;19.890;2023-04-01T11:56:00;13.00;99.90
66728;DHT22;53641;44.274;19.890;2023-04-01T11:59:03;12.90;99.90
66728;DHT22;53641;44.274;19.890;2023-04-01T12:01:18;13.00;99.90
66728;DHT22;53641;44.274;19.890;2023-04-01T12:03:50;13.00;99.90
66728;DHT22;53641;44.274;19.890;2023-04-01T12:06:35;13.00;99.90
66728;DHT22;53641;44.274;19.890;2023-04-01T12:09:22;13.00;99.90
66728;DHT22;53641;44.274;19.890;2023-04-01T12:11:51;13.10;99.90
66728;DHT22;53641;44.274;19.890;2023-04-01T12:14:27;13.20;99.90
66728;DHT22;53641;44.274;19.890;2023-04-01T12:16:59;13.30;99.90
66728;DHT22;53641;44.274;19.890;2023-04-01T12:19:32;13.50;99.90
66728;DHT22;53641;44.274;19.890;2023-04-01T12:22:14;13.60;99.90
66728;DHT22;53641;44.274;19.890;2023-04-01T12:24:49;13.60;99.90
66728;DHT22;53641;44.274;19.890;2023-04-01T12:30:13;13.50;99.90
66728;DHT22;53641;44.274;19.890;2023-04-01T12:33:01;13.70;99.90
66728;DHT22;53641;44.274;19.890;2023-04-01T12:38:20;13.90;99.90
66728;DHT22;53641;44.274;19.890;2023-04-01T12:40:51;14.00;99.90
66728;DHT22;53641;44.274;19.890;2023-04-01T12:44:29;13.70;99.90
66728;DHT22;53641;44.274;19.890;2023-04-01T12:46:46;13.70;99.90
66728;DHT22;53641;44.274;19.890;2023-04-01T12:49:02;14.00;99.90
66728;DHT22;53641;44.274;19.890;2023-04-01T12:52:09;14.10;99.90
66728;DHT22;53641;44.274;19.890;2023-04-01T12:55:35;14.30;99.90
66728;DHT22;53641;44.274;19.890;2023-04-01T12:57:20;14.40;99.90
66728;DHT22;53641;44.274;19.890;2023-04-01T13:00:29;14.40;99.90
66728;DHT22;53641;44.274;19.890;2023-04-01T13:05:36;14.50;99.90
66728;DHT22;53641;44.274;19.890;2023-04-01T13:08:17;14.70;99.90
66728;DHT22;53641;44.274;19.890;2023-04-01T13:11:07;14.50;99.90
66728;DHT22;53641;44.274;19.890;2023-04-01T13:13:55;14.50;99.90
66728;DHT22;53641;44.274;19.890;2023-04-01T13:16:19;14.70;99.90
66728;DHT22;53641;44.274;19.890;2023-04-01T13:20:13;14.70;99.90
66728;DHT22;53641;44.274;19.890;2023-04-01T13:22:03;14.70;99.90
66728;DHT22;53641;44.274;19.890;2023-04-01T13:24:25;14.70;99.90
66728;DHT22;53641;44.274;19.890;2023-04-01T13:26:58;14.70;99.90
66728;DHT22;53641;44.274;19.890;2023-04-01T13:29:34;14.50;99.90
66728;DHT22;53641;44.274;19.890;2023-04-01T13:32:20;14.70;99.90
66728;DHT22;53641;44.274;19.890;2023-04-01T13:37:59;14.60;99.90
66728;DHT22;53641;44.274;19.890;2023-04-01T13:40:25;14.70;99.90
66728;DHT22;53641;44.274;19.890;2023-04-01T13:42:57;14.60;99.90
66728;DHT22;53641;44.274;19.890;2023-04-01T13:48:18;14.90;99.90
66728;DHT22;53641;44.274;19.890;2023-04-01T13:53:36;14.90;99.90
66728;DHT22;53641;44.274;19.890;2023-04-01T13:57:36;15.10;99.90
66728;DHT22;53641;44.274;19.890;2023-04-01T13:59:32;15.20;99.90
66728;DHT22;53641;44.274;19.890;2023-04-01T14:01:46;15.30;99.90
66728;DHT22;53641;44.274;19.890;2023-04-01T14:04:20;15.40;99.90
66728;DHT22;53641;44.274;19.890;2023-04-01T14:06:54;15.50;99.90
66728;DHT22;53641;44.274;19.890;2023-04-01T14:09:34;15.50;99.90
66728;DHT22;53641;44.274;19.890;2023-04-01T14:12:13;15.50;99.90
66728;DHT22;53641;44.274;19.890;2023-04-01T14:14:53;15.50;99.90
66728;DHT22;53641;44.274;19.890;2023-04-01T14:17:40;15.50;99.90
66728;DHT22;53641;44.274;19.890;2023-04-01T14:20:33;15.40;99.90
66728;DHT22;53641;44.274;19.890;2023-04-01T14:23:08;15.30;99.90
66728;DHT22;53641;44.274;19.890;2023-04-01T14:25:55;15.30;99.90
66728;DHT22;53641;44.274;19.890;2023-04-01T14:28:30;15.30;99.90
66728;DHT22;53641;44.274;19.890;2023-04-01T14:31:04;15.30;99.90
66728;DHT22;53641;44.274;19.890;2023-04-01T14:33:40;15.40;99.90
66728;DHT22;53641;44.274;19.890;2023-04-01T14:36:22;15.30;99.90
66728;DHT22;53641;44.274;19.890;2023-04-01T14:38:54;15.20;99.90
66728;DHT22;53641;44.274;19.890;2023-04-01T14:41:30;15.30;99.90
66728;DHT22;53641;44.274;19.890;2023-04-01T14:44:18;15.30;99.90
66728;DHT22;53641;44.274;19.890;2023-04-01T14:47:25;15.40;99.90
66728;DHT22;53641;44.274;19.890;2023-04-01T14:49:34;15.40;99.90
66728;DHT22;53641;44.274;19.890;2023-04-01T14:52:10;15.50;99.90
66728;DHT22;53641;44.274;19.890;2023-04-01T14:54:37;15.40;99.90
66728;DHT22;53641;44.274;19.890;2023-04-01T14:57:14;15.40;99.90
66728;DHT22;53641;44.274;19.890;2023-04-01T14:59:41;15.40;99.90
66728;DHT22;53641;44.274;19.890;2023-04-01T15:02:28;15.40;99.90
66728;DHT22;53641;44.274;19.890;2023-04-01T15:05:07;15.30;99.90
66728;DHT22;53641;44.274;19.890;2023-04-01T15:07:52;15.30;98.60
66728;DHT22;53641;44.274;19.890;2023-04-01T15:10:38;15.20;98.40
66728;DHT22;53641;44.274;19.890;2023-04-01T15:13:19;15.10;98.10
66728;DHT22;53641;44.274;19.890;2023-04-01T15:16:13;15.20;97.60
66728;DHT22;53641;44.274;19.890;2023-04-01T15:18:44;15.10;96.90
66728;DHT22;53641;44.274;19.890;2023-04-01T15:21:18;15.10;95.80
66728;DHT22;53641;44.274;19.890;2023-04-01T15:24:07;15.10;98.20
66728;DHT22;53641;44.274;19.890;2023-04-01T15:26:33;15.20;97.70
66728;DHT22;53641;44.274;19.890;2023-04-01T15:31:50;15.20;97.50
66728;DHT22;53641;44.274;19.890;2023-04-01T15:34:26;15.10;96.20
66728;DHT22;53641;44.274;19.890;2023-04-01T15:37:14;15.10;95.60
66728;DHT22;53641;44.274;19.890;2023-04-01T15:40:17;15.10;96.50
66728;DHT22;53641;44.274;19.890;2023-04-01T15:42:40;14.90;94.70
66728;DHT22;53641;44.274;19.890;2023-04-01T15:45:29;14.80;95.40
66728;DHT22;53641;44.274;19.890;2023-04-01T15:48:05;14.80;95.70
66728;DHT22;53641;44.274;19.890;2023-04-01T15:50:43;14.70;96.00
66728;DHT22;53641;44.274;19.890;2023-04-01T15:53:25;14.70;95.20
66728;DHT22;53641;44.274;19.890;2023-04-01T15:56:12;14.60;95.60
66728;DHT22;53641;44.274;19.890;2023-04-01T15:58:43;14.50;96.80
66728;DHT22;53641;44.274;19.890;2023-04-01T16:01:35;14.50;96.10
66728;DHT22;53641;44.274;19.890;2023-04-01T16:04:15;14.50;95.30
66728;DHT22;53641;44.274;19.890;2023-04-01T16:06:48;14.40;96.60
66728;DHT22;53641;44.274;19.890;2023-04-01T16:09:22;14.30;96.00
66728;DHT22;53641;44.274;19.890;2023-04-01T16:11:53;14.30;96.30
66728;DHT22;53641;44.274;19.890;2023-04-01T16:14:31;14.40;96.10
66728;DHT22;53641;44.274;19.890;2023-04-01T16:17:44;14.40;96.70
66728;DHT22;53641;44.274;19.890;2023-04-01T16:19:52;14.30;96.50
66728;DHT22;53641;44.274;19.890;2023-04-01T16:22:23;14.30;96.80
66728;DHT22;53641;44.274;19.890;2023-04-01T16:24:55;14.20;96.70
66728;DHT22;53641;44.274;19.890;2023-04-01T16:27:27;14.20;97.10
66728;DHT22;53641;44.274;19.890;2023-04-01T16:29:56;14.20;97.60
66728;DHT22;53641;44.274;19.890;2023-04-01T16:32:43;14.20;97.30
66728;DHT22;53641;44.274;19.890;2023-04-01T16:35:23;14.00;97.20
66728;DHT22;53641;44.274;19.890;2023-04-01T16:37:52;14.00;97.60
66728;DHT22;53641;44.274;19.890;2023-04-01T16:40:36;14.00;97.90
66728;DHT22;53641;44.274;19.890;2023-04-01T16:43:10;14.00;98.20
66728;DHT22;53641;44.274;19.890;2023-04-01T16:45:55;14.00;98.80
66728;DHT22;53641;44.274;19.890;2023-04-01T16:48:27;13.90;98.40
66728;DHT22;53641;44.274;19.890;2023-04-01T16:51:04;13.80;99.30